createdAt,value
2022-12-11T00:01:11.695Z,2.45
2022-12-11T00:03:38.443Z,2.45
2022-12-11T00:06:07.243Z,2.46
2022-12-11T00:08:33.947Z,2.49
2022-12-11T00:11:00.659Z,2.51
2022-12-11T00:13:27.447Z,2.53
2022-12-11T00:15:54.071Z,2.57
2022-12-11T00:18:20.853Z,2.58
2022-12-11T00:20:47.457Z,2.61
2022-12-11T00:23:14.143Z,2.63
2022-12-11T00:25:44.272Z,2.64
2022-12-11T00:28:12.123Z,2.64
2022-12-11T00:30:40.847Z,2.64
2022-12-11T00:33:07.488Z,2.63
2022-12-11T00:35:34.160Z,2.65
2022-12-11T00:38:00.792Z,2.67
2022-12-11T00:40:27.460Z,2.67
2022-12-11T00:42:54.134Z,2.67
2022-12-11T00:45:20.787Z,2.66
2022-12-11T00:47:47.410Z,2.59
2022-12-11T00:50:14.063Z,2.56
2022-12-11T00:52:40.716Z,2.58
2022-12-11T00:55:07.760Z,2.60
2022-12-11T00:57:35.460Z,2.62
2022-12-11T01:00:02.135Z,2.64
2022-12-11T01:02:28.784Z,2.67
2022-12-11T01:04:56.170Z,2.68
2022-12-11T01:07:22.867Z,2.70
2022-12-11T01:10:08.122Z,2.73
2022-12-11T01:12:35.037Z,2.76
2022-12-11T01:15:01.713Z,2.77
2022-12-11T01:17:28.331Z,2.76
2022-12-11T01:19:55.136Z,2.75
2022-12-11T01:22:21.931Z,2.71
2022-12-11T01:24:48.715Z,2.67
2022-12-11T01:27:15.615Z,2.65
2022-12-11T01:29:42.266Z,2.65
2022-12-11T01:32:08.904Z,2.65
2022-12-11T01:34:35.733Z,2.67
2022-12-11T01:37:02.392Z,2.68
2022-12-11T01:39:29.028Z,2.67
2022-12-11T01:41:59.344Z,2.64
2022-12-11T01:44:25.972Z,2.55
2022-12-11T01:46:53.813Z,2.49
2022-12-11T01:49:21.739Z,2.48
2022-12-11T01:51:59.374Z,2.47
2022-12-11T01:54:26.266Z,2.47
2022-12-11T01:56:53.544Z,2.46
2022-12-11T01:59:22.595Z,2.44
2022-12-11T02:01:52.554Z,2.45
2022-12-11T02:04:19.327Z,2.47
2022-12-11T02:06:47.740Z,2.48
2022-12-11T02:09:16.265Z,2.46
2022-12-11T02:11:48.994Z,2.46
2022-12-11T02:14:28.181Z,2.45
2022-12-11T02:17:02.175Z,2.46
2022-12-11T02:20:06.794Z,2.43
2022-12-11T02:24:18.530Z,2.37
2022-12-11T02:26:56.512Z,2.30
2022-12-11T02:29:34.938Z,2.30
2022-12-11T02:32:04.821Z,2.29
2022-12-11T02:34:43.412Z,2.28
2022-12-11T02:37:13.444Z,2.28
2022-12-11T02:39:40.651Z,2.28
2022-12-11T02:42:07.279Z,2.27
2022-12-11T02:44:34.068Z,2.27
2022-12-11T02:47:01.008Z,2.30
2022-12-11T02:49:27.667Z,2.33
2022-12-11T02:51:54.805Z,2.33
2022-12-11T02:54:25.422Z,2.34
2022-12-11T02:57:00.636Z,2.33
2022-12-11T02:59:31.119Z,2.34
2022-12-11T03:01:58.307Z,2.35
2022-12-11T03:04:25.063Z,2.36
2022-12-11T03:06:54.733Z,2.38
2022-12-11T03:09:21.486Z,2.39
2022-12-11T03:11:48.187Z,2.40
2022-12-11T03:14:14.902Z,2.42
2022-12-11T03:17:00.136Z,2.45
2022-12-11T03:19:45.749Z,2.44
2022-12-11T03:22:16.292Z,2.42
2022-12-11T03:24:48.813Z,2.44
2022-12-11T03:27:37.083Z,2.45
2022-12-11T03:30:25.968Z,2.48
2022-12-11T03:32:58.181Z,2.52
2022-12-11T03:35:41.792Z,2.59
2022-12-11T03:38:14.660Z,2.64
2022-12-11T03:40:42.752Z,2.68
2022-12-11T03:43:10.253Z,2.71
2022-12-11T03:45:37.857Z,2.72
2022-12-11T03:48:05.597Z,2.73
2022-12-11T03:50:33.370Z,2.74
2022-12-11T03:53:01.079Z,2.73
2022-12-11T03:55:30.620Z,2.72
2022-12-11T03:57:58.345Z,2.71
2022-12-11T04:00:26.315Z,2.75
2022-12-11T04:03:13.925Z,2.78
2022-12-11T04:06:01.873Z,2.82
2022-12-11T04:08:29.591Z,2.84
2022-12-11T04:11:15.654Z,2.86
2022-12-11T04:13:43.279Z,2.86
2022-12-11T04:16:10.672Z,2.85
2022-12-11T04:18:56.529Z,2.87
2022-12-11T04:21:42.563Z,2.86
2022-12-11T04:24:15.946Z,2.85
2022-12-11T04:26:47.001Z,2.86
2022-12-11T04:29:15.547Z,2.89
2022-12-11T04:31:43.044Z,2.92
2022-12-11T04:34:10.917Z,2.93
2022-12-11T04:36:38.453Z,2.95
2022-12-11T04:39:06.167Z,2.95
2022-12-11T04:41:33.885Z,2.96
2022-12-11T04:44:01.289Z,2.96
2022-12-11T04:46:28.103Z,2.98
2022-12-11T04:48:57.707Z,2.96
2022-12-11T04:51:24.901Z,2.95
2022-12-11T04:53:51.568Z,2.92
2022-12-11T04:56:18.346Z,2.89
2022-12-11T04:58:45.141Z,2.88
2022-12-11T05:01:13.842Z,2.88
2022-12-11T05:03:40.723Z,2.88
2022-12-11T05:06:08.134Z,2.89
2022-12-11T05:08:35.573Z,2.90
2022-12-11T05:11:05.710Z,2.86
2022-12-11T05:13:32.508Z,2.80
2022-12-11T05:15:59.377Z,2.76
2022-12-11T05:18:26.124Z,2.74
2022-12-11T05:21:00.182Z,2.69
2022-12-11T05:23:26.987Z,2.67
2022-12-11T05:25:54.877Z,2.67
2022-12-11T05:28:22.019Z,2.66
2022-12-11T05:30:48.878Z,2.66
2022-12-11T05:33:15.498Z,2.67
2022-12-11T05:35:47.789Z,2.70
2022-12-11T05:38:14.724Z,2.73
2022-12-11T05:40:41.541Z,2.72
2022-12-11T05:43:08.648Z,2.74
2022-12-11T05:45:35.393Z,2.77
2022-12-11T05:48:02.099Z,2.81
2022-12-11T05:50:28.735Z,2.86
2022-12-11T05:52:55.483Z,2.87
2022-12-11T05:55:22.101Z,2.90
2022-12-11T05:57:48.930Z,2.92
2022-12-11T06:00:15.580Z,2.93
2022-12-11T06:02:42.339Z,2.93
2022-12-11T06:05:09.515Z,2.94
2022-12-11T06:07:36.325Z,2.95
2022-12-11T06:10:03.018Z,2.97
2022-12-11T06:12:29.949Z,3.01
2022-12-11T06:14:56.676Z,3.05
2022-12-11T06:17:23.306Z,3.08
2022-12-11T06:19:49.921Z,3.08
2022-12-11T06:22:16.595Z,3.07
2022-12-11T06:24:43.244Z,3.07
2022-12-11T06:27:10.243Z,3.08
2022-12-11T06:29:36.879Z,3.08
2022-12-11T06:32:03.671Z,3.07
2022-12-11T06:34:30.346Z,3.08
2022-12-11T06:36:56.974Z,3.10
2022-12-11T06:39:23.580Z,3.10
2022-12-11T06:41:50.218Z,3.08
2022-12-11T06:44:16.855Z,3.09
2022-12-11T06:46:43.479Z,3.10
2022-12-11T06:49:10.100Z,3.12
2022-12-11T06:51:36.900Z,3.16
2022-12-11T06:54:03.698Z,3.18
2022-12-11T06:56:30.512Z,3.21
2022-12-11T06:58:57.211Z,3.22
2022-12-11T07:01:25.797Z,3.26
2022-12-11T07:03:53.855Z,3.30
2022-12-11T07:06:20.579Z,3.36
2022-12-11T07:08:47.246Z,3.41
2022-12-11T07:11:15.312Z,3.45
2022-12-11T07:13:42.333Z,3.48
2022-12-11T07:16:11.036Z,3.49
2022-12-11T07:18:38.922Z,3.52
2022-12-11T07:21:06.525Z,3.55
2022-12-11T07:23:34.035Z,3.57
2022-12-11T07:26:07.411Z,3.63
2022-12-11T07:28:34.511Z,3.68
2022-12-11T07:31:08.183Z,3.71
2022-12-11T07:33:34.915Z,3.72
2022-12-11T07:36:05.875Z,3.74
2022-12-11T07:38:32.638Z,3.76
2022-12-11T07:41:03.520Z,3.79
2022-12-11T07:43:30.161Z,3.82
2022-12-11T07:46:03.941Z,3.83
2022-12-11T07:48:30.524Z,3.85
2022-12-11T07:51:27.981Z,3.87
2022-12-11T07:53:59.604Z,3.93
2022-12-11T07:56:26.783Z,3.98
2022-12-11T07:58:53.797Z,4.02
2022-12-11T08:01:26.073Z,4.04
2022-12-11T08:03:53.298Z,4.07
2022-12-11T08:06:21.459Z,4.09
2022-12-11T08:08:48.146Z,4.11
2022-12-11T08:11:14.894Z,4.13
2022-12-11T08:13:42.223Z,4.16
2022-12-11T08:16:10.747Z,4.19
2022-12-11T08:18:37.729Z,4.23
2022-12-11T08:21:06.303Z,4.26
2022-12-11T08:23:32.911Z,4.29
2022-12-11T08:25:59.687Z,4.31
2022-12-11T08:28:27.395Z,4.33
2022-12-11T08:30:54.167Z,4.35
2022-12-11T08:33:20.886Z,4.38
2022-12-11T08:35:47.655Z,4.40
2022-12-11T08:38:14.399Z,4.39
2022-12-11T08:40:41.096Z,4.39
2022-12-11T08:43:07.957Z,4.38
2022-12-11T08:45:34.606Z,4.37
2022-12-11T08:48:01.249Z,4.35
2022-12-11T08:50:27.923Z,4.35
2022-12-11T08:52:54.611Z,4.36
2022-12-11T08:55:22.051Z,4.35
2022-12-11T08:57:48.743Z,4.38
2022-12-11T09:00:15.932Z,4.40
2022-12-11T09:02:42.679Z,4.41
2022-12-11T09:05:10.177Z,4.42
2022-12-11T09:07:37.622Z,4.42
2022-12-11T09:10:05.791Z,4.44
2022-12-11T09:12:33.574Z,4.46
2022-12-11T09:15:00.261Z,4.49
2022-12-11T09:17:26.962Z,4.48
2022-12-11T09:19:53.609Z,4.43
2022-12-11T09:22:20.244Z,4.42
2022-12-11T09:24:47.164Z,4.43
2022-12-11T09:27:13.813Z,4.45
2022-12-11T09:29:40.610Z,4.48
2022-12-11T09:32:07.387Z,4.49
2022-12-11T09:34:34.088Z,4.48
2022-12-11T09:37:00.844Z,4.46
2022-12-11T09:39:27.515Z,4.45
2022-12-11T09:42:21.202Z,4.44
2022-12-11T09:44:54.865Z,4.43
2022-12-11T09:47:27.751Z,4.44
2022-12-11T09:49:59.152Z,4.44
2022-12-11T09:52:32.159Z,4.45
2022-12-11T09:55:13.663Z,4.48
2022-12-11T09:57:40.382Z,4.50
2022-12-11T10:00:26.065Z,4.54
2022-12-11T10:03:20.091Z,4.59
2022-12-11T10:06:08.683Z,4.64
2022-12-11T10:08:38.463Z,4.69
2022-12-11T10:11:42.214Z,4.72
2022-12-11T10:14:13.158Z,4.76
2022-12-11T10:16:48.489Z,4.79
2022-12-11T10:19:19.220Z,4.83
2022-12-11T10:21:45.860Z,4.87
2022-12-11T10:25:07.549Z,4.91
2022-12-11T10:27:21.847Z,4.97
2022-12-11T10:29:52.999Z,5.01
2022-12-11T10:32:24.721Z,5.05
2022-12-11T10:34:57.367Z,5.08
2022-12-11T10:37:24.363Z,5.12
2022-12-11T10:39:51.473Z,5.17
2022-12-11T10:42:22.423Z,5.20
2022-12-11T10:45:15.514Z,5.25
2022-12-11T10:47:42.126Z,5.30
2022-12-11T10:50:22.501Z,5.33
2022-12-11T10:52:49.169Z,5.38
2022-12-11T10:55:27.798Z,5.44
2022-12-11T10:58:02.635Z,5.49
2022-12-11T11:00:39.809Z,5.55
2022-12-11T11:03:23.889Z,5.62
2022-12-11T11:05:50.811Z,5.70
2022-12-11T11:08:21.591Z,5.77
2022-12-11T11:10:55.706Z,5.86
2022-12-11T11:13:23.549Z,5.94
2022-12-11T11:15:51.350Z,6.03
2022-12-11T11:18:27.797Z,6.11
2022-12-11T11:20:54.476Z,6.18
2022-12-11T11:23:23.992Z,6.27
2022-12-11T11:26:01.609Z,6.35
2022-12-11T11:28:40.643Z,6.43
2022-12-11T11:31:09.319Z,6.53
2022-12-11T11:33:37.019Z,6.64
2022-12-11T11:36:06.036Z,6.75
2022-12-11T11:38:44.941Z,6.86
2022-12-11T11:41:21.164Z,7.01
2022-12-11T11:43:59.230Z,7.20
2022-12-11T11:46:46.530Z,7.38
2022-12-11T11:49:15.500Z,7.53
2022-12-11T11:51:51.834Z,7.62
2022-12-11T11:54:36.100Z,7.72
2022-12-11T11:57:13.980Z,7.84
2022-12-11T11:59:42.967Z,7.92
2022-12-11T12:02:14.728Z,8.01
2022-12-11T12:04:41.372Z,8.08
2022-12-11T12:07:20.665Z,8.16
2022-12-11T12:10:12.476Z,8.23
2022-12-11T12:13:01.757Z,8.28
2022-12-11T12:15:38.883Z,8.36
2022-12-11T12:18:43.314Z,8.44
2022-12-11T12:21:19.695Z,8.50
2022-12-11T12:23:58.345Z,8.55
2022-12-11T12:26:29.924Z,8.62
2022-12-11T12:29:20.295Z,8.67
2022-12-11T12:31:53.759Z,8.72
2022-12-11T12:34:32.518Z,8.77
2022-12-11T12:37:49.383Z,8.82
2022-12-11T12:40:34.260Z,8.87
2022-12-11T12:43:11.298Z,8.91
2022-12-11T12:46:00.411Z,8.96
2022-12-11T12:48:27.306Z,8.98
2022-12-11T12:50:53.879Z,9.02
2022-12-11T12:53:23.185Z,9.05
2022-12-11T12:55:49.853Z,9.10
2022-12-11T12:58:31.739Z,9.13
2022-12-11T13:01:19.429Z,9.14
2022-12-11T13:04:06.353Z,9.17
2022-12-11T13:06:36.946Z,9.20
2022-12-11T13:09:17.837Z,9.23
2022-12-11T13:11:45.273Z,9.25
2022-12-11T13:14:11.936Z,9.29
2022-12-11T13:16:42.609Z,9.31
2022-12-11T13:19:27.779Z,9.33
2022-12-11T13:21:58.347Z,9.36
2022-12-11T13:24:26.944Z,9.37
2022-12-11T13:26:53.651Z,9.38
2022-12-11T13:29:35.824Z,9.40
2022-12-11T13:32:08.025Z,9.43
2022-12-11T13:34:39.616Z,9.45
2022-12-11T13:37:06.711Z,9.47
2022-12-11T13:39:35.075Z,9.49
2022-12-11T13:42:05.903Z,9.50
2022-12-11T13:44:39.435Z,9.50
2022-12-11T13:47:07.412Z,9.51
2022-12-11T13:49:38.731Z,9.52
2022-12-11T13:52:05.749Z,9.54
2022-12-11T13:54:34.078Z,9.56
2022-12-11T13:57:22.520Z,9.57
2022-12-11T13:59:53.469Z,9.57
2022-12-11T14:02:34.554Z,9.59
2022-12-11T14:05:03.632Z,9.60
2022-12-11T14:07:38.396Z,9.61
2022-12-11T14:10:19.457Z,9.62
2022-12-11T14:13:05.894Z,9.64
2022-12-11T14:15:33.801Z,9.66
2022-12-11T14:18:00.532Z,9.67
2022-12-11T14:20:29.027Z,9.67
2022-12-11T14:23:13.775Z,9.68
2022-12-11T14:25:40.464Z,9.68
2022-12-11T14:28:15.729Z,9.69
2022-12-11T14:30:46.792Z,9.73
2022-12-11T14:33:13.433Z,9.76
2022-12-11T14:35:40.583Z,9.77
2022-12-11T14:38:35.234Z,9.79
2022-12-11T14:42:38.143Z,9.85
2022-12-11T14:45:08.459Z,9.85
2022-12-11T14:47:39.211Z,9.85
2022-12-11T14:50:08.398Z,9.85
2022-12-11T14:52:43.504Z,9.85
2022-12-11T14:55:16.570Z,9.86
2022-12-11T14:57:44.652Z,9.87
2022-12-11T15:00:30.398Z,9.88
2022-12-11T15:03:07.906Z,9.91
2022-12-11T15:05:40.512Z,9.93
2022-12-11T15:08:10.763Z,9.94
2022-12-11T15:10:42.028Z,9.95
2022-12-11T15:13:09.184Z,9.98
2022-12-11T15:15:43.165Z,10.01
2022-12-11T15:18:34.158Z,10.03
2022-12-11T15:21:07.035Z,10.05
2022-12-11T15:23:35.072Z,10.07
2022-12-11T15:26:01.876Z,10.09
2022-12-11T15:28:33.550Z,10.09
2022-12-11T15:31:04.090Z,10.11
2022-12-11T15:33:34.322Z,10.14
2022-12-11T15:36:05.367Z,10.16
2022-12-11T15:38:40.737Z,10.19
2022-12-11T15:41:15.438Z,10.21
2022-12-11T15:43:42.100Z,10.23
2022-12-11T15:46:08.917Z,10.25
2022-12-11T15:48:35.613Z,10.25
2022-12-11T15:51:03.729Z,10.26
2022-12-11T15:53:30.329Z,10.25
2022-12-11T15:55:57.515Z,10.25
2022-12-11T15:58:24.566Z,10.25
2022-12-11T16:00:51.235Z,10.25
2022-12-11T16:03:18.918Z,10.28
2022-12-11T16:05:45.603Z,10.29
2022-12-11T16:08:17.126Z,10.30
2022-12-11T16:10:44.289Z,10.31
2022-12-11T16:13:11.291Z,10.33
2022-12-11T16:15:38.975Z,10.35
2022-12-11T16:18:07.678Z,10.36
2022-12-11T16:20:35.300Z,10.38
2022-12-11T16:23:01.952Z,10.39
2022-12-11T16:25:28.721Z,10.38
2022-12-11T16:27:56.633Z,10.39
2022-12-11T16:30:23.652Z,10.40
2022-12-11T16:32:51.067Z,10.41
2022-12-11T16:35:18.723Z,10.42
2022-12-11T16:37:45.756Z,10.43
2022-12-11T16:40:12.500Z,10.44
2022-12-11T16:42:39.302Z,10.44
2022-12-11T16:45:08.579Z,10.46
2022-12-11T16:47:35.302Z,10.48
2022-12-11T16:50:02.140Z,10.48
2022-12-11T16:52:28.800Z,10.50
2022-12-11T16:54:56.778Z,10.54
2022-12-11T16:57:23.441Z,10.55
2022-12-11T16:59:50.856Z,10.59
2022-12-11T17:02:17.802Z,10.61
2022-12-11T17:04:47.030Z,10.65
2022-12-11T17:07:17.755Z,10.67
2022-12-11T17:09:44.451Z,10.69
2022-12-11T17:12:11.080Z,10.70
2022-12-11T17:14:37.830Z,10.73
2022-12-11T17:17:04.714Z,10.75
2022-12-11T17:19:31.403Z,10.76
2022-12-11T17:21:58.983Z,10.79
2022-12-11T17:24:25.661Z,10.80
2022-12-11T17:26:52.697Z,10.81
2022-12-11T17:29:19.969Z,10.83
2022-12-11T17:31:46.809Z,10.85
2022-12-11T17:34:13.431Z,10.85
2022-12-11T17:36:40.110Z,10.86
2022-12-11T17:39:06.665Z,10.86
2022-12-11T17:41:33.346Z,10.87
2022-12-11T17:44:00.112Z,10.87
2022-12-11T17:46:26.763Z,10.87
2022-12-11T17:48:53.468Z,10.90
2022-12-11T17:51:26.617Z,10.89
2022-12-11T17:53:55.269Z,10.87
2022-12-11T17:56:22.160Z,10.88
2022-12-11T17:58:48.869Z,10.89
2022-12-11T18:01:15.530Z,10.89
2022-12-11T18:03:42.382Z,10.90
2022-12-11T18:06:11.525Z,10.91
2022-12-11T18:08:38.351Z,10.93
2022-12-11T18:11:31.822Z,10.93
2022-12-11T18:13:58.525Z,10.92
2022-12-11T18:16:27.819Z,10.92
2022-12-11T18:18:54.604Z,10.92
2022-12-11T18:21:23.220Z,10.93
2022-12-11T18:23:50.328Z,10.94
2022-12-11T18:26:18.337Z,10.95
2022-12-11T18:28:45.202Z,10.97
2022-12-11T18:31:12.158Z,10.97
2022-12-11T18:33:39.469Z,10.97
2022-12-11T18:36:06.598Z,10.95
2022-12-11T18:38:33.609Z,10.96
2022-12-11T18:41:05.666Z,10.96
2022-12-11T18:43:32.308Z,10.97
2022-12-11T18:45:59.002Z,10.97
2022-12-11T18:48:25.664Z,10.97
2022-12-11T18:50:52.359Z,10.97
2022-12-11T18:53:19.570Z,10.94
2022-12-11T18:55:47.546Z,10.84
2022-12-11T18:58:15.395Z,10.63
2022-12-11T19:00:42.373Z,10.41
2022-12-11T19:03:09.059Z,10.22
2022-12-11T19:05:40.286Z,10.04
2022-12-11T19:08:06.941Z,9.83
2022-12-11T19:10:33.585Z,9.66
2022-12-11T19:13:00.229Z,9.52
2022-12-11T19:15:27.753Z,9.39
2022-12-11T19:17:54.414Z,9.27
2022-12-11T19:23:07.905Z,8.96
2022-12-11T19:25:34.642Z,8.79
2022-12-11T19:28:01.399Z,8.65
2022-12-11T19:30:28.072Z,8.51
2022-12-11T19:32:54.970Z,8.40
2022-12-11T19:35:21.597Z,8.32
2022-12-11T19:37:48.239Z,8.26
2022-12-11T19:40:15.198Z,8.14
2022-12-11T19:42:42.428Z,8.06
2022-12-11T19:45:10.721Z,7.96
2022-12-11T19:47:37.688Z,7.78
2022-12-11T19:50:04.664Z,7.65
2022-12-11T19:52:31.333Z,7.53
2022-12-11T19:55:01.781Z,7.43
2022-12-11T19:57:28.458Z,7.38
2022-12-11T19:59:57.357Z,7.37
2022-12-11T20:02:24.304Z,7.32
2022-12-11T20:04:50.953Z,7.25
2022-12-11T20:07:17.844Z,7.22
2022-12-11T20:09:44.525Z,7.21
2022-12-11T20:12:11.166Z,7.18
2022-12-11T20:14:38.010Z,7.09
2022-12-11T20:17:14.208Z,6.92
2022-12-11T20:19:41.434Z,6.79
2022-12-11T20:22:09.075Z,6.68
2022-12-11T20:24:35.885Z,6.57
2022-12-11T20:27:02.579Z,6.39
2022-12-11T20:29:29.243Z,6.25
2022-12-11T20:31:55.899Z,6.13
2022-12-11T20:34:22.596Z,6.03
2022-12-11T20:36:49.415Z,5.92
2022-12-11T20:39:16.149Z,5.81
2022-12-11T20:41:42.890Z,5.73
2022-12-11T20:44:09.650Z,5.68
2022-12-11T20:46:36.393Z,5.63
2022-12-11T20:49:03.264Z,5.57
2022-12-11T20:51:30.356Z,5.54
2022-12-11T20:53:59.951Z,5.47
2022-12-11T20:56:30.159Z,5.41
2022-12-11T20:58:57.368Z,5.31
2022-12-11T21:01:25.023Z,5.25
2022-12-11T21:03:53.006Z,5.19
2022-12-11T21:06:26.699Z,5.16
2022-12-11T21:08:53.299Z,5.09
2022-12-11T21:11:20.120Z,4.99
2022-12-11T21:13:50.458Z,4.95
2022-12-11T21:16:17.840Z,4.89
2022-12-11T21:18:46.417Z,4.85
2022-12-11T21:21:13.139Z,4.79
2022-12-11T21:23:39.785Z,4.76
2022-12-11T21:26:06.506Z,4.74
2022-12-11T21:28:35.443Z,4.65
2022-12-11T21:31:04.278Z,4.57
2022-12-11T21:33:30.980Z,4.55
2022-12-11T21:35:57.799Z,4.56
2022-12-11T21:38:24.635Z,4.54
2022-12-11T21:40:51.754Z,4.46
2022-12-11T21:43:18.576Z,4.37
2022-12-11T21:46:01.017Z,4.26
2022-12-11T21:48:28.613Z,4.21
2022-12-11T21:50:55.282Z,4.17
2022-12-11T21:53:21.913Z,4.14
2022-12-11T21:55:48.579Z,4.12
2022-12-11T21:58:15.712Z,4.09
2022-12-11T22:00:42.423Z,4.06
2022-12-11T22:03:09.203Z,4.05
2022-12-11T22:05:35.890Z,4.03
2022-12-11T22:08:02.737Z,4.05
2022-12-11T22:10:29.493Z,4.08
2022-12-11T22:12:56.200Z,4.08
2022-12-11T22:15:22.882Z,4.07
2022-12-11T22:17:49.595Z,4.07
2022-12-11T22:20:16.275Z,4.03
2022-12-11T22:22:42.954Z,4.00
2022-12-11T22:25:10.086Z,3.96
2022-12-11T22:27:37.041Z,3.93
2022-12-11T22:30:04.341Z,3.90
2022-12-11T22:32:30.974Z,3.88
2022-12-11T22:34:57.917Z,3.85
2022-12-11T22:37:24.666Z,3.83
2022-12-11T22:39:51.425Z,3.80
2022-12-11T22:42:18.173Z,3.77
2022-12-11T22:44:44.783Z,3.77
2022-12-11T22:47:11.534Z,3.80
2022-12-11T22:49:38.183Z,3.79
2022-12-11T22:52:04.931Z,3.75
2022-12-11T22:54:31.576Z,3.76
2022-12-11T22:56:58.180Z,3.77
2022-12-11T22:59:24.864Z,3.78
2022-12-11T23:01:51.533Z,3.79
2022-12-11T23:04:18.171Z,3.80
2022-12-11T23:06:44.773Z,3.84
2022-12-11T23:09:11.853Z,3.88
2022-12-11T23:11:38.938Z,3.91
2022-12-11T23:14:06.683Z,3.93
2022-12-11T23:16:33.797Z,3.91
2022-12-11T23:19:00.733Z,3.87
2022-12-11T23:21:27.667Z,3.84
2022-12-11T23:23:54.804Z,3.81
2022-12-11T23:26:22.104Z,3.75
2022-12-11T23:28:49.207Z,3.70
2022-12-11T23:31:16.042Z,3.65
2022-12-11T23:33:42.786Z,3.64
2022-12-11T23:36:09.718Z,3.65
2022-12-11T23:38:36.515Z,3.59
2022-12-11T23:41:03.564Z,3.54
2022-12-11T23:43:30.196Z,3.53
2022-12-11T23:45:57.743Z,3.55
2022-12-11T23:48:24.444Z,3.52
2022-12-11T23:50:51.154Z,3.47
2022-12-11T23:53:17.774Z,3.46
2022-12-11T23:55:44.675Z,3.43
2022-12-11T23:58:11.820Z,3.39
